sensor_id;sensor_type;location;lat;lon;timestamp;P1;durP1;ratioP1;P2;durP2;ratioP2
68300;SDS011;55146;47.468;18.806;2023-02-28T00:00:42;12.40;;;6.63;;
68300;SDS011;55146;47.468;18.806;2023-02-28T00:03:08;12.20;;;6.68;;
68300;SDS011;55146;47.468;18.806;2023-02-28T00:05:33;16.63;;;8.43;;
68300;SDS011;55146;47.468;18.806;2023-02-28T00:07:59;17.83;;;7.73;;
68300;SDS011;55146;47.468;18.806;2023-02-28T00:10:25;12.07;;;6.53;;
68300;SDS011;55146;47.468;18.806;2023-02-28T00:12:54;15.80;;;7.73;;
68300;SDS011;55146;47.468;18.806;2023-02-28T00:15:22;11.07;;;7.18;;
68300;SDS011;55146;47.468;18.806;2023-02-28T00:17:48;12.77;;;7.62;;
68300;SDS011;55146;47.468;18.806;2023-02-28T00:20:13;13.17;;;7.33;;
68300;SDS011;55146;47.468;18.806;2023-02-28T00:22:39;11.10;;;6.87;;
68300;SDS011;55146;47.468;18.806;2023-02-28T00:25:07;10.43;;;6.97;;
68300;SDS011;55146;47.468;18.806;2023-02-28T00:27:34;13.65;;;8.00;;
68300;SDS011;55146;47.468;18.806;2023-02-28T00:30:00;13.25;;;7.37;;
68300;SDS011;55146;47.468;18.806;2023-02-28T00:32:26;13.90;;;8.17;;
68300;SDS011;55146;47.468;18.806;2023-02-28T00:34:51;12.75;;;7.37;;
68300;SDS011;55146;47.468;18.806;2023-02-28T00:37:17;13.63;;;7.33;;
68300;SDS011;55146;47.468;18.806;2023-02-28T00:39:42;13.20;;;7.60;;
68300;SDS011;55146;47.468;18.806;2023-02-28T00:42:07;13.30;;;8.17;;
68300;SDS011;55146;47.468;18.806;2023-02-28T00:44:33;13.53;;;7.53;;
68300;SDS011;55146;47.468;18.806;2023-02-28T00:46:59;13.82;;;7.50;;
68300;SDS011;55146;47.468;18.806;2023-02-28T00:49:25;16.42;;;8.30;;
68300;SDS011;55146;47.468;18.806;2023-02-28T00:51:52;14.85;;;7.87;;
68300;SDS011;55146;47.468;18.806;2023-02-28T00:54:19;13.48;;;8.48;;
68300;SDS011;55146;47.468;18.806;2023-02-28T00:56:44;13.50;;;7.78;;
68300;SDS011;55146;47.468;18.806;2023-02-28T00:59:11;14.30;;;8.18;;
68300;SDS011;55146;47.468;18.806;2023-02-28T01:01:37;14.98;;;7.82;;
68300;SDS011;55146;47.468;18.806;2023-02-28T01:04:03;13.70;;;9.07;;
68300;SDS011;55146;47.468;18.806;2023-02-28T01:06:28;14.17;;;7.50;;
68300;SDS011;55146;47.468;18.806;2023-02-28T01:08:53;13.13;;;7.70;;
68300;SDS011;55146;47.468;18.806;2023-02-28T01:11:19;12.60;;;7.67;;
68300;SDS011;55146;47.468;18.806;2023-02-28T01:13:45;13.03;;;7.30;;
68300;SDS011;55146;47.468;18.806;2023-02-28T01:16:11;14.90;;;8.07;;
68300;SDS011;55146;47.468;18.806;2023-02-28T01:18:38;13.43;;;8.23;;
68300;SDS011;55146;47.468;18.806;2023-02-28T01:21:04;12.80;;;7.53;;
68300;SDS011;55146;47.468;18.806;2023-02-28T01:23:31;14.82;;;8.07;;
68300;SDS011;55146;47.468;18.806;2023-02-28T01:25:56;13.20;;;7.60;;
68300;SDS011;55146;47.468;18.806;2023-02-28T01:28:22;13.57;;;7.33;;
68300;SDS011;55146;47.468;18.806;2023-02-28T01:30:48;14.80;;;8.27;;
68300;SDS011;55146;47.468;18.806;2023-02-28T01:33:15;13.53;;;8.27;;
68300;SDS011;55146;47.468;18.806;2023-02-28T01:35:40;14.52;;;8.02;;
68300;SDS011;55146;47.468;18.806;2023-02-28T01:38:06;16.10;;;8.20;;
68300;SDS011;55146;47.468;18.806;2023-02-28T01:40:31;13.97;;;8.50;;
68300;SDS011;55146;47.468;18.806;2023-02-28T01:42:57;15.17;;;7.87;;
68300;SDS011;55146;47.468;18.806;2023-02-28T01:45:26;14.63;;;8.07;;
68300;SDS011;55146;47.468;18.806;2023-02-28T01:47:58;15.35;;;8.02;;
68300;SDS011;55146;47.468;18.806;2023-02-28T01:50:28;16.30;;;9.13;;
68300;SDS011;55146;47.468;18.806;2023-02-28T01:52:57;15.33;;;8.07;;
68300;SDS011;55146;47.468;18.806;2023-02-28T01:55:26;14.02;;;7.95;;
68300;SDS011;55146;47.468;18.806;2023-02-28T01:57:55;16.08;;;9.23;;
68300;SDS011;55146;47.468;18.806;2023-02-28T02:00:24;16.20;;;9.73;;
68300;SDS011;55146;47.468;18.806;2023-02-28T02:02:56;14.82;;;8.77;;
68300;SDS011;55146;47.468;18.806;2023-02-28T02:05:25;18.13;;;9.57;;
68300;SDS011;55146;47.468;18.806;2023-02-28T02:07:55;15.07;;;8.45;;
68300;SDS011;55146;47.468;18.806;2023-02-28T02:10:31;18.55;;;9.55;;
68300;SDS011;55146;47.468;18.806;2023-02-28T02:24:26;14.87;;;8.30;;
68300;SDS011;55146;47.468;18.806;2023-02-28T02:36:31;18.33;;;8.60;;
68300;SDS011;55146;47.468;18.806;2023-02-28T02:42:28;19.20;;;9.70;;
68300;SDS011;55146;47.468;18.806;2023-02-28T02:45:01;14.32;;;8.82;;
68300;SDS011;55146;47.468;18.806;2023-02-28T02:47:51;15.33;;;8.53;;
68300;SDS011;55146;47.468;18.806;2023-02-28T02:50:22;14.82;;;9.25;;
68300;SDS011;55146;47.468;18.806;2023-02-28T02:52:52;20.92;;;8.52;;
68300;SDS011;55146;47.468;18.806;2023-02-28T02:55:22;16.87;;;9.32;;
68300;SDS011;55146;47.468;18.806;2023-02-28T02:57:50;16.50;;;8.53;;
68300;SDS011;55146;47.468;18.806;2023-02-28T03:00:25;18.10;;;9.27;;
68300;SDS011;55146;47.468;18.806;2023-02-28T03:02:55;18.12;;;9.90;;
68300;SDS011;55146;47.468;18.806;2023-02-28T03:05:34;15.70;;;9.25;;
68300;SDS011;55146;47.468;18.806;2023-02-28T03:08:06;16.70;;;8.77;;
68300;SDS011;55146;47.468;18.806;2023-02-28T03:10:34;15.10;;;8.63;;
68300;SDS011;55146;47.468;18.806;2023-02-28T03:16:07;18.30;;;10.77;;
68300;SDS011;55146;47.468;18.806;2023-02-28T03:18:47;21.05;;;9.63;;
68300;SDS011;55146;47.468;18.806;2023-02-28T03:24:30;17.75;;;9.60;;
68300;SDS011;55146;47.468;18.806;2023-02-28T03:30:04;21.47;;;10.67;;
68300;SDS011;55146;47.468;18.806;2023-02-28T03:35:43;19.70;;;10.60;;
68300;SDS011;55146;47.468;18.806;2023-02-28T03:38:28;16.50;;;9.38;;
68300;SDS011;55146;47.468;18.806;2023-02-28T03:41:06;21.45;;;11.88;;
68300;SDS011;55146;47.468;18.806;2023-02-28T03:43:39;17.40;;;9.37;;
68300;SDS011;55146;47.468;18.806;2023-02-28T03:46:09;17.48;;;9.73;;
68300;SDS011;55146;47.468;18.806;2023-02-28T03:48:43;20.45;;;10.70;;
68300;SDS011;55146;47.468;18.806;2023-02-28T03:51:12;21.05;;;10.18;;
68300;SDS011;55146;47.468;18.806;2023-02-28T03:53:43;19.83;;;10.40;;
68300;SDS011;55146;47.468;18.806;2023-02-28T03:58:42;21.53;;;11.47;;
68300;SDS011;55146;47.468;18.806;2023-02-28T04:04:07;17.58;;;10.80;;
68300;SDS011;55146;47.468;18.806;2023-02-28T04:06:34;20.02;;;10.75;;
68300;SDS011;55146;47.468;18.806;2023-02-28T04:09:00;19.27;;;11.35;;
68300;SDS011;55146;47.468;18.806;2023-02-28T04:14:00;21.40;;;11.38;;
68300;SDS011;55146;47.468;18.806;2023-02-28T04:16:27;21.15;;;10.35;;
68300;SDS011;55146;47.468;18.806;2023-02-28T04:18:53;16.80;;;10.00;;
68300;SDS011;55146;47.468;18.806;2023-02-28T04:21:18;23.23;;;11.00;;
68300;SDS011;55146;47.468;18.806;2023-02-28T04:23:47;18.57;;;10.67;;
68300;SDS011;55146;47.468;18.806;2023-02-28T04:26:12;19.33;;;10.75;;
68300;SDS011;55146;47.468;18.806;2023-02-28T04:28:38;21.70;;;9.43;;
68300;SDS011;55146;47.468;18.806;2023-02-28T04:31:04;17.90;;;10.03;;
68300;SDS011;55146;47.468;18.806;2023-02-28T04:33:31;21.02;;;11.15;;
68300;SDS011;55146;47.468;18.806;2023-02-28T04:35:58;20.17;;;9.65;;
68300;SDS011;55146;47.468;18.806;2023-02-28T04:38:27;18.42;;;9.65;;
68300;SDS011;55146;47.468;18.806;2023-02-28T04:40:53;17.87;;;9.50;;
68300;SDS011;55146;47.468;18.806;2023-02-28T04:43:18;16.95;;;9.55;;
68300;SDS011;55146;47.468;18.806;2023-02-28T04:45:44;16.63;;;8.87;;
68300;SDS011;55146;47.468;18.806;2023-02-28T04:48:09;18.87;;;10.10;;
68300;SDS011;55146;47.468;18.806;2023-02-28T04:50:34;21.37;;;10.57;;
68300;SDS011;55146;47.468;18.806;2023-02-28T04:53:00;16.43;;;9.73;;
68300;SDS011;55146;47.468;18.806;2023-02-28T04:55:25;19.70;;;9.90;;
68300;SDS011;55146;47.468;18.806;2023-02-28T04:57:50;19.10;;;9.73;;
68300;SDS011;55146;47.468;18.806;2023-02-28T05:00:16;17.80;;;11.00;;
68300;SDS011;55146;47.468;18.806;2023-02-28T05:02:42;19.45;;;10.73;;
68300;SDS011;55146;47.468;18.806;2023-02-28T05:05:08;19.40;;;10.45;;
68300;SDS011;55146;47.468;18.806;2023-02-28T05:07:33;16.37;;;9.50;;
68300;SDS011;55146;47.468;18.806;2023-02-28T05:09:59;19.40;;;9.97;;
68300;SDS011;55146;47.468;18.806;2023-02-28T05:12:24;16.90;;;9.65;;
68300;SDS011;55146;47.468;18.806;2023-02-28T05:14:50;19.77;;;11.10;;
68300;SDS011;55146;47.468;18.806;2023-02-28T05:17:15;20.20;;;11.07;;
68300;SDS011;55146;47.468;18.806;2023-02-28T05:19:41;18.73;;;10.75;;
68300;SDS011;55146;47.468;18.806;2023-02-28T05:22:11;17.97;;;9.60;;
68300;SDS011;55146;47.468;18.806;2023-02-28T05:24:39;18.58;;;9.45;;
68300;SDS011;55146;47.468;18.806;2023-02-28T05:27:05;17.80;;;9.97;;
68300;SDS011;55146;47.468;18.806;2023-02-28T05:29:30;15.47;;;9.60;;
68300;SDS011;55146;47.468;18.806;2023-02-28T05:31:55;15.88;;;8.48;;
68300;SDS011;55146;47.468;18.806;2023-02-28T05:34:21;20.17;;;9.87;;
68300;SDS011;55146;47.468;18.806;2023-02-28T05:36:46;18.43;;;9.17;;
68300;SDS011;55146;47.468;18.806;2023-02-28T05:39:11;19.10;;;9.77;;
68300;SDS011;55146;47.468;18.806;2023-02-28T05:41:38;17.50;;;10.33;;
68300;SDS011;55146;47.468;18.806;2023-02-28T05:44:07;20.83;;;11.30;;
68300;SDS011;55146;47.468;18.806;2023-02-28T05:46:32;17.65;;;10.18;;
68300;SDS011;55146;47.468;18.806;2023-02-28T05:48:58;15.83;;;8.60;;
68300;SDS011;55146;47.468;18.806;2023-02-28T05:51:25;18.58;;;9.02;;
68300;SDS011;55146;47.468;18.806;2023-02-28T05:53:51;15.77;;;9.88;;
68300;SDS011;55146;47.468;18.806;2023-02-28T05:56:16;16.63;;;9.33;;
68300;SDS011;55146;47.468;18.806;2023-02-28T05:58:41;19.90;;;9.67;;
68300;SDS011;55146;47.468;18.806;2023-02-28T06:01:23;16.53;;;9.93;;
68300;SDS011;55146;47.468;18.806;2023-02-28T06:03:49;15.40;;;8.77;;
68300;SDS011;55146;47.468;18.806;2023-02-28T06:06:14;19.83;;;9.60;;
68300;SDS011;55146;47.468;18.806;2023-02-28T06:08:40;17.70;;;8.90;;
68300;SDS011;55146;47.468;18.806;2023-02-28T06:11:05;15.87;;;9.23;;
68300;SDS011;55146;47.468;18.806;2023-02-28T06:13:31;19.40;;;9.52;;
68300;SDS011;55146;47.468;18.806;2023-02-28T06:15:59;14.73;;;8.87;;
68300;SDS011;55146;47.468;18.806;2023-02-28T06:18:25;17.08;;;8.30;;
68300;SDS011;55146;47.468;18.806;2023-02-28T06:20:54;13.87;;;8.87;;
68300;SDS011;55146;47.468;18.806;2023-02-28T06:25:55;14.35;;;7.35;;
68300;SDS011;55146;47.468;18.806;2023-02-28T06:28:23;14.07;;;7.87;;
68300;SDS011;55146;47.468;18.806;2023-02-28T06:30:49;15.60;;;8.23;;
68300;SDS011;55146;47.468;18.806;2023-02-28T06:33:14;15.07;;;8.57;;
68300;SDS011;55146;47.468;18.806;2023-02-28T06:35:42;18.93;;;8.40;;
68300;SDS011;55146;47.468;18.806;2023-02-28T06:38:09;16.85;;;9.10;;
68300;SDS011;55146;47.468;18.806;2023-02-28T06:40:35;13.40;;;7.07;;
68300;SDS011;55146;47.468;18.806;2023-02-28T06:43:01;16.23;;;7.80;;
68300;SDS011;55146;47.468;18.806;2023-02-28T06:45:27;13.00;;;7.93;;
68300;SDS011;55146;47.468;18.806;2023-02-28T06:47:52;22.37;;;8.48;;
68300;SDS011;55146;47.468;18.806;2023-02-28T06:50:18;13.97;;;8.17;;
68300;SDS011;55146;47.468;18.806;2023-02-28T06:52:44;12.65;;;7.55;;
68300;SDS011;55146;47.468;18.806;2023-02-28T06:55:10;15.10;;;7.70;;
68300;SDS011;55146;47.468;18.806;2023-02-28T06:57:36;15.30;;;7.15;;
68300;SDS011;55146;47.468;18.806;2023-02-28T07:00:06;15.27;;;8.17;;
68300;SDS011;55146;47.468;18.806;2023-02-28T07:02:33;12.00;;;6.28;;
68300;SDS011;55146;47.468;18.806;2023-02-28T07:05:03;13.18;;;7.43;;
68300;SDS011;55146;47.468;18.806;2023-02-28T07:07:29;19.95;;;8.23;;
68300;SDS011;55146;47.468;18.806;2023-02-28T07:09:54;15.17;;;8.07;;
68300;SDS011;55146;47.468;18.806;2023-02-28T07:12:20;20.73;;;7.90;;
68300;SDS011;55146;47.468;18.806;2023-02-28T07:14:46;13.13;;;7.35;;
68300;SDS011;55146;47.468;18.806;2023-02-28T07:17:11;12.17;;;7.10;;
68300;SDS011;55146;47.468;18.806;2023-02-28T07:19:37;16.45;;;8.20;;
68300;SDS011;55146;47.468;18.806;2023-02-28T07:22:03;13.87;;;8.03;;
68300;SDS011;55146;47.468;18.806;2023-02-28T07:24:29;13.95;;;8.35;;
68300;SDS011;55146;47.468;18.806;2023-02-28T07:26:55;14.63;;;8.20;;
68300;SDS011;55146;47.468;18.806;2023-02-28T07:29:20;13.35;;;8.55;;
68300;SDS011;55146;47.468;18.806;2023-02-28T07:31:46;12.55;;;7.15;;
68300;SDS011;55146;47.468;18.806;2023-02-28T07:34:12;13.90;;;8.67;;
68300;SDS011;55146;47.468;18.806;2023-02-28T07:36:38;13.90;;;8.25;;
68300;SDS011;55146;47.468;18.806;2023-02-28T07:39:03;14.80;;;8.37;;
68300;SDS011;55146;47.468;18.806;2023-02-28T07:41:34;14.55;;;8.65;;
68300;SDS011;55146;47.468;18.806;2023-02-28T07:44:02;13.43;;;7.30;;
68300;SDS011;55146;47.468;18.806;2023-02-28T07:46:28;14.20;;;7.68;;
68300;SDS011;55146;47.468;18.806;2023-02-28T07:49:00;15.27;;;8.10;;
68300;SDS011;55146;47.468;18.806;2023-02-28T07:51:25;13.37;;;8.00;;
68300;SDS011;55146;47.468;18.806;2023-02-28T07:53:51;12.43;;;8.23;;
68300;SDS011;55146;47.468;18.806;2023-02-28T07:56:17;14.07;;;9.17;;
68300;SDS011;55146;47.468;18.806;2023-02-28T07:58:42;14.13;;;8.93;;
68300;SDS011;55146;47.468;18.806;2023-02-28T08:01:08;13.03;;;6.70;;
68300;SDS011;55146;47.468;18.806;2023-02-28T08:03:34;12.23;;;7.50;;
68300;SDS011;55146;47.468;18.806;2023-02-28T08:06:02;11.60;;;7.10;;
68300;SDS011;55146;47.468;18.806;2023-02-28T08:08:29;11.50;;;6.57;;
68300;SDS011;55146;47.468;18.806;2023-02-28T08:10:57;11.37;;;6.20;;
68300;SDS011;55146;47.468;18.806;2023-02-28T08:13:27;10.50;;;6.10;;
68300;SDS011;55146;47.468;18.806;2023-02-28T08:15:53;14.10;;;6.80;;
68300;SDS011;55146;47.468;18.806;2023-02-28T08:18:19;9.18;;;6.10;;
68300;SDS011;55146;47.468;18.806;2023-02-28T08:20:45;10.90;;;6.23;;
68300;SDS011;55146;47.468;18.806;2023-02-28T08:23:11;10.68;;;6.72;;
68300;SDS011;55146;47.468;18.806;2023-02-28T08:25:36;11.30;;;6.30;;
68300;SDS011;55146;47.468;18.806;2023-02-28T08:28:02;13.00;;;6.33;;
68300;SDS011;55146;47.468;18.806;2023-02-28T08:30:27;10.10;;;6.45;;
68300;SDS011;55146;47.468;18.806;2023-02-28T08:32:53;11.77;;;6.53;;
68300;SDS011;55146;47.468;18.806;2023-02-28T08:35:19;10.65;;;6.60;;
68300;SDS011;55146;47.468;18.806;2023-02-28T08:37:44;10.60;;;6.97;;
68300;SDS011;55146;47.468;18.806;2023-02-28T08:40:12;11.73;;;6.53;;
68300;SDS011;55146;47.468;18.806;2023-02-28T08:42:43;11.83;;;6.80;;
68300;SDS011;55146;47.468;18.806;2023-02-28T08:45:11;10.93;;;6.82;;
68300;SDS011;55146;47.468;18.806;2023-02-28T08:47:37;11.93;;;7.20;;
68300;SDS011;55146;47.468;18.806;2023-02-28T08:50:03;12.67;;;6.73;;
68300;SDS011;55146;47.468;18.806;2023-02-28T08:52:29;13.57;;;7.50;;
68300;SDS011;55146;47.468;18.806;2023-02-28T08:54:55;10.27;;;6.67;;
68300;SDS011;55146;47.468;18.806;2023-02-28T08:57:20;12.47;;;6.90;;
68300;SDS011;55146;47.468;18.806;2023-02-28T08:59:46;10.63;;;5.70;;
68300;SDS011;55146;47.468;18.806;2023-02-28T09:02:12;11.40;;;6.57;;
68300;SDS011;55146;47.468;18.806;2023-02-28T09:04:39;11.48;;;6.75;;
68300;SDS011;55146;47.468;18.806;2023-02-28T09:07:05;11.88;;;5.72;;
68300;SDS011;55146;47.468;18.806;2023-02-28T09:09:30;13.00;;;6.57;;
68300;SDS011;55146;47.468;18.806;2023-02-28T09:11:56;13.83;;;5.90;;
68300;SDS011;55146;47.468;18.806;2023-02-28T09:14:21;10.40;;;6.50;;
68300;SDS011;55146;47.468;18.806;2023-02-28T09:16:47;10.50;;;6.00;;
68300;SDS011;55146;47.468;18.806;2023-02-28T09:19:12;12.47;;;6.00;;
68300;SDS011;55146;47.468;18.806;2023-02-28T09:21:38;10.73;;;6.57;;
68300;SDS011;55146;47.468;18.806;2023-02-28T09:24:03;9.40;;;5.93;;
68300;SDS011;55146;47.468;18.806;2023-02-28T09:26:29;11.30;;;6.30;;
68300;SDS011;55146;47.468;18.806;2023-02-28T09:28:54;12.40;;;5.63;;
68300;SDS011;55146;47.468;18.806;2023-02-28T09:31:24;11.45;;;6.47;;
68300;SDS011;55146;47.468;18.806;2023-02-28T09:33:52;10.43;;;5.83;;
68300;SDS011;55146;47.468;18.806;2023-02-28T09:36:19;9.45;;;6.05;;
68300;SDS011;55146;47.468;18.806;2023-02-28T09:38:45;11.27;;;6.15;;
68300;SDS011;55146;47.468;18.806;2023-02-28T09:41:32;9.90;;;5.85;;
68300;SDS011;55146;47.468;18.806;2023-02-28T09:44:10;12.05;;;6.07;;
68300;SDS011;55146;47.468;18.806;2023-02-28T09:46:43;10.93;;;5.37;;
68300;SDS011;55146;47.468;18.806;2023-02-28T09:49:13;10.73;;;6.57;;
68300;SDS011;55146;47.468;18.806;2023-02-28T09:54:21;11.32;;;5.25;;
68300;SDS011;55146;47.468;18.806;2023-02-28T09:56:57;10.77;;;6.35;;
68300;SDS011;55146;47.468;18.806;2023-02-28T09:59:37;11.70;;;5.93;;
68300;SDS011;55146;47.468;18.806;2023-02-28T10:10:50;14.07;;;6.87;;
68300;SDS011;55146;47.468;18.806;2023-02-28T10:12:58;13.17;;;6.43;;
68300;SDS011;55146;47.468;18.806;2023-02-28T10:15:28;10.63;;;5.68;;
68300;SDS011;55146;47.468;18.806;2023-02-28T10:18:01;13.02;;;7.12;;
68300;SDS011;55146;47.468;18.806;2023-02-28T10:20:33;10.95;;;6.03;;
68300;SDS011;55146;47.468;18.806;2023-02-28T10:23:07;9.88;;;6.03;;
68300;SDS011;55146;47.468;18.806;2023-02-28T10:25:37;14.57;;;7.53;;
68300;SDS011;55146;47.468;18.806;2023-02-28T10:28:10;14.23;;;6.78;;
68300;SDS011;55146;47.468;18.806;2023-02-28T10:30:38;12.57;;;6.07;;
68300;SDS011;55146;47.468;18.806;2023-02-28T10:33:15;11.25;;;6.15;;
68300;SDS011;55146;47.468;18.806;2023-02-28T10:35:43;11.52;;;6.55;;
68300;SDS011;55146;47.468;18.806;2023-02-28T10:38:12;12.33;;;6.83;;
68300;SDS011;55146;47.468;18.806;2023-02-28T10:40:42;20.10;;;10.52;;
68300;SDS011;55146;47.468;18.806;2023-02-28T10:45:39;10.38;;;5.53;;
68300;SDS011;55146;47.468;18.806;2023-02-28T10:55:57;12.43;;;7.03;;
68300;SDS011;55146;47.468;18.806;2023-02-28T11:03:55;8.98;;;5.47;;
68300;SDS011;55146;47.468;18.806;2023-02-28T11:08:58;9.07;;;5.50;;
68300;SDS011;55146;47.468;18.806;2023-02-28T11:11:28;10.13;;;6.78;;
68300;SDS011;55146;47.468;18.806;2023-02-28T11:13:57;11.40;;;6.60;;
68300;SDS011;55146;47.468;18.806;2023-02-28T11:16:35;10.30;;;5.50;;
68300;SDS011;55146;47.468;18.806;2023-02-28T11:19:03;11.30;;;5.80;;
68300;SDS011;55146;47.468;18.806;2023-02-28T11:21:33;10.20;;;5.80;;
68300;SDS011;55146;47.468;18.806;2023-02-28T11:24:16;9.52;;;5.07;;
68300;SDS011;55146;47.468;18.806;2023-02-28T11:26:53;11.70;;;6.72;;
68300;SDS011;55146;47.468;18.806;2023-02-28T11:29:30;9.63;;;5.68;;
68300;SDS011;55146;47.468;18.806;2023-02-28T11:34:41;10.67;;;5.47;;
68300;SDS011;55146;47.468;18.806;2023-02-28T11:37:20;10.40;;;6.57;;
68300;SDS011;55146;47.468;18.806;2023-02-28T11:39:46;9.50;;;5.53;;
68300;SDS011;55146;47.468;18.806;2023-02-28T11:55:45;9.67;;;5.87;;
68300;SDS011;55146;47.468;18.806;2023-02-28T11:58:21;9.68;;;6.00;;
68300;SDS011;55146;47.468;18.806;2023-02-28T12:01:15;10.95;;;4.93;;
68300;SDS011;55146;47.468;18.806;2023-02-28T12:03:50;11.43;;;6.22;;
68300;SDS011;55146;47.468;18.806;2023-02-28T12:06:38;8.00;;;5.18;;
68300;SDS011;55146;47.468;18.806;2023-02-28T12:29:05;10.55;;;4.43;;
68300;SDS011;55146;47.468;18.806;2023-02-28T12:31:35;7.03;;;4.47;;
68300;SDS011;55146;47.468;18.806;2023-02-28T12:34:05;8.25;;;4.53;;
68300;SDS011;55146;47.468;18.806;2023-02-28T12:36:37;7.13;;;3.70;;
68300;SDS011;55146;47.468;18.806;2023-02-28T12:39:13;7.53;;;4.40;;
68300;SDS011;55146;47.468;18.806;2023-02-28T12:46:50;10.82;;;5.72;;
68300;SDS011;55146;47.468;18.806;2023-02-28T12:52:08;9.48;;;5.68;;
68300;SDS011;55146;47.468;18.806;2023-02-28T12:54:52;8.43;;;4.93;;
68300;SDS011;55146;47.468;18.806;2023-02-28T12:57:49;9.27;;;5.43;;
68300;SDS011;55146;47.468;18.806;2023-02-28T13:00:23;16.05;;;5.70;;
68300;SDS011;55146;47.468;18.806;2023-02-28T13:05:50;10.00;;;5.72;;
68300;SDS011;55146;47.468;18.806;2023-02-28T13:08:28;9.48;;;5.75;;
68300;SDS011;55146;47.468;18.806;2023-02-28T13:11:28;10.90;;;5.40;;
68300;SDS011;55146;47.468;18.806;2023-02-28T13:13:57;13.90;;;5.62;;
68300;SDS011;55146;47.468;18.806;2023-02-28T13:16:28;8.40;;;4.73;;
68300;SDS011;55146;47.468;18.806;2023-02-28T13:19:24;10.48;;;5.82;;
68300;SDS011;55146;47.468;18.806;2023-02-28T13:21:53;10.68;;;5.30;;
68300;SDS011;55146;47.468;18.806;2023-02-28T13:29:53;9.40;;;5.67;;
68300;SDS011;55146;47.468;18.806;2023-02-28T13:42:55;10.25;;;4.87;;
68300;SDS011;55146;47.468;18.806;2023-02-28T14:09:15;9.60;;;6.47;;
68300;SDS011;55146;47.468;18.806;2023-02-28T14:11:48;11.70;;;6.50;;
68300;SDS011;55146;47.468;18.806;2023-02-28T14:17:05;10.27;;;6.10;;
68300;SDS011;55146;47.468;18.806;2023-02-28T14:19:35;8.57;;;5.07;;
68300;SDS011;55146;47.468;18.806;2023-02-28T14:35:34;8.88;;;4.70;;
68300;SDS011;55146;47.468;18.806;2023-02-28T14:38:01;10.20;;;6.03;;
68300;SDS011;55146;47.468;18.806;2023-02-28T14:40:32;12.60;;;5.70;;
68300;SDS011;55146;47.468;18.806;2023-02-28T14:43:04;10.55;;;6.30;;
68300;SDS011;55146;47.468;18.806;2023-02-28T14:45:31;11.30;;;6.73;;
68300;SDS011;55146;47.468;18.806;2023-02-28T14:47:59;8.85;;;5.20;;
68300;SDS011;55146;47.468;18.806;2023-02-28T14:50:27;9.18;;;5.20;;
68300;SDS011;55146;47.468;18.806;2023-02-28T14:52:55;9.45;;;5.00;;
68300;SDS011;55146;47.468;18.806;2023-02-28T14:55:43;10.65;;;5.90;;
68300;SDS011;55146;47.468;18.806;2023-02-28T14:58:30;10.03;;;5.90;;
68300;SDS011;55146;47.468;18.806;2023-02-28T15:00:59;9.35;;;5.35;;
68300;SDS011;55146;47.468;18.806;2023-02-28T15:03:33;10.85;;;5.45;;
68300;SDS011;55146;47.468;18.806;2023-02-28T15:08:27;9.77;;;5.12;;
68300;SDS011;55146;47.468;18.806;2023-02-28T15:16:13;10.88;;;5.25;;
68300;SDS011;55146;47.468;18.806;2023-02-28T15:21:13;12.52;;;6.25;;
68300;SDS011;55146;47.468;18.806;2023-02-28T15:23:43;12.57;;;6.90;;
68300;SDS011;55146;47.468;18.806;2023-02-28T15:26:15;12.40;;;6.87;;
68300;SDS011;55146;47.468;18.806;2023-02-28T15:28:44;14.90;;;6.15;;
68300;SDS011;55146;47.468;18.806;2023-02-28T15:31:18;11.12;;;7.05;;
68300;SDS011;55146;47.468;18.806;2023-02-28T15:33:52;10.52;;;6.15;;
68300;SDS011;55146;47.468;18.806;2023-02-28T15:36:24;12.73;;;7.00;;
68300;SDS011;55146;47.468;18.806;2023-02-28T15:38:52;12.45;;;6.65;;
68300;SDS011;55146;47.468;18.806;2023-02-28T15:41:28;14.38;;;7.00;;
68300;SDS011;55146;47.468;18.806;2023-02-28T15:44:15;12.10;;;6.45;;
68300;SDS011;55146;47.468;18.806;2023-02-28T15:46:58;13.02;;;6.90;;
68300;SDS011;55146;47.468;18.806;2023-02-28T15:49:26;12.70;;;7.00;;
68300;SDS011;55146;47.468;18.806;2023-02-28T15:51:53;11.32;;;6.45;;
68300;SDS011;55146;47.468;18.806;2023-02-28T15:54:23;12.15;;;6.72;;
68300;SDS011;55146;47.468;18.806;2023-02-28T15:56:54;14.73;;;6.97;;
68300;SDS011;55146;47.468;18.806;2023-02-28T15:59:26;12.18;;;6.65;;
68300;SDS011;55146;47.468;18.806;2023-02-28T16:04:34;12.15;;;7.35;;
68300;SDS011;55146;47.468;18.806;2023-02-28T16:07:04;20.33;;;10.70;;
68300;SDS011;55146;47.468;18.806;2023-02-28T16:09:31;18.33;;;9.40;;
68300;SDS011;55146;47.468;18.806;2023-02-28T16:12:00;18.62;;;9.77;;
68300;SDS011;55146;47.468;18.806;2023-02-28T16:14:28;18.90;;;8.97;;
68300;SDS011;55146;47.468;18.806;2023-02-28T16:17:02;14.82;;;8.13;;
68300;SDS011;55146;47.468;18.806;2023-02-28T16:19:29;18.15;;;9.23;;
68300;SDS011;55146;47.468;18.806;2023-02-28T16:21:56;18.67;;;9.75;;
68300;SDS011;55146;47.468;18.806;2023-02-28T16:24:22;14.68;;;8.35;;
68300;SDS011;55146;47.468;18.806;2023-02-28T16:26:48;14.27;;;7.63;;
68300;SDS011;55146;47.468;18.806;2023-02-28T16:29:37;17.25;;;9.25;;
68300;SDS011;55146;47.468;18.806;2023-02-28T16:32:04;24.27;;;12.33;;
68300;SDS011;55146;47.468;18.806;2023-02-28T16:34:30;28.83;;;14.25;;
68300;SDS011;55146;47.468;18.806;2023-02-28T16:36:55;21.83;;;12.13;;
68300;SDS011;55146;47.468;18.806;2023-02-28T16:39:21;22.90;;;11.30;;
68300;SDS011;55146;47.468;18.806;2023-02-28T16:41:47;21.07;;;11.67;;
68300;SDS011;55146;47.468;18.806;2023-02-28T16:44:16;24.37;;;11.68;;
68300;SDS011;55146;47.468;18.806;2023-02-28T16:46:48;15.88;;;8.10;;
68300;SDS011;55146;47.468;18.806;2023-02-28T16:49:14;15.60;;;7.87;;
68300;SDS011;55146;47.468;18.806;2023-02-28T16:51:39;13.63;;;6.53;;
68300;SDS011;55146;47.468;18.806;2023-02-28T16:54:05;14.27;;;7.17;;
68300;SDS011;55146;47.468;18.806;2023-02-28T16:56:30;15.27;;;7.43;;
68300;SDS011;55146;47.468;18.806;2023-02-28T16:58:58;17.23;;;8.20;;
68300;SDS011;55146;47.468;18.806;2023-02-28T17:01:25;15.45;;;7.62;;
68300;SDS011;55146;47.468;18.806;2023-02-28T17:03:52;14.48;;;7.85;;
68300;SDS011;55146;47.468;18.806;2023-02-28T17:08:54;16.25;;;8.40;;
68300;SDS011;55146;47.468;18.806;2023-02-28T17:11:20;14.40;;;8.70;;
68300;SDS011;55146;47.468;18.806;2023-02-28T17:13:46;22.87;;;8.25;;
68300;SDS011;55146;47.468;18.806;2023-02-28T17:18:59;19.53;;;8.50;;
68300;SDS011;55146;47.468;18.806;2023-02-28T17:21:26;14.25;;;9.07;;
68300;SDS011;55146;47.468;18.806;2023-02-28T17:23:53;14.75;;;8.20;;
68300;SDS011;55146;47.468;18.806;2023-02-28T17:26:19;18.02;;;8.63;;
68300;SDS011;55146;47.468;18.806;2023-02-28T17:28:49;16.47;;;7.93;;
68300;SDS011;55146;47.468;18.806;2023-02-28T17:31:15;13.85;;;8.20;;
68300;SDS011;55146;47.468;18.806;2023-02-28T17:33:41;14.05;;;8.30;;
68300;SDS011;55146;47.468;18.806;2023-02-28T17:36:13;15.77;;;9.37;;
68300;SDS011;55146;47.468;18.806;2023-02-28T17:38:40;18.77;;;9.30;;
68300;SDS011;55146;47.468;18.806;2023-02-28T17:41:07;18.75;;;8.80;;
68300;SDS011;55146;47.468;18.806;2023-02-28T17:43:37;19.42;;;8.90;;
68300;SDS011;55146;47.468;18.806;2023-02-28T17:46:03;18.05;;;8.82;;
68300;SDS011;55146;47.468;18.806;2023-02-28T17:48:32;17.70;;;8.97;;